Impacts TAF Board INFO
FOR SITUATIONAL AWARENESS. NOT TO BE USED FOR FLIGHT PLANNING PURPOSES.
IDs:

KDFW - Dallas-Ft Worth Intl, TX, US

Issued at 1508 UTC 18 Jan 2018
Updated at 1544 UTC 18 Jan 2018
Potential Impact None Slight Moderate High
Time1453Z 18/16Z 18/17Z 18/18Z 18/19Z 18/20Z 18/21Z 18/22Z 18/23Z 19/00Z 19/01Z 19/02Z 19/03Z 19/04Z>>
Type OBS PRVL PRVL PRVL PRVL PRVL PRVL PRVL PRVL PRVL PRVL PRVL PRVL PRVL
VIS 10 >6 >6 >6 >6 >6 >6 >6 >6 >6 >6 >6 >6 >6
CIG -- -- -- -- -- -- -- -- -- -- -- -- -- --
Cover CLR FEW FEW FEW SCT SCT SCT SCT SCT SCT SCT SCT SCT SCT
FltCat VFR VFR VFR VFR VFR VFR VFR VFR VFR VFR VFR VFR VFR VFR
WX -- -- -- -- -- -- -- -- -- -- -- -- -- --
WDir 190 180 180 180 190 190 190 190 190 190 190 190 190 190
WSpd 8 7 7 7 11 11 11 11 11 11 11 11 11 11
WGst -- -- -- -- -- -- -- -- -- -- -- -- -- --

Raw TAF
KDFW 181508Z 1815/1918 18007KT P6SM FEW250
  FM181900 19011KT P6SM SCT050
  FM191500 19014KT P6SM SCT040


Raw METAR
KDFW 181453Z 19008KT 10SM CLR M03/M10 A3051 RMK AO2 SLP338 T10331100 53001 $
KDFW 181353Z 00000KT 10SM CLR M07/M12 A3051 RMK AO2 SLP339 T10671117 $
KDFW 181253Z 19007KT 10SM CLR M07/M12 A3051 RMK AO2 SLP336 T10721122 $

METAR Board
Radar Display
Forecast Discussion

FOR SITUATIONAL AWARENESS. NOT TO BE USED FOR FLIGHT PLANNING PURPOSES.